sensor_id;sensor_type;location;lat;lon;timestamp;P1;durP1;ratioP1;P2;durP2;ratioP2
47153;SDS011;32907;41.412;2.164;2023-03-03T00:00:04;17.55;;;13.68;;
47153;SDS011;32907;41.412;2.164;2023-03-03T00:02:39;15.48;;;13.77;;
47153;SDS011;32907;41.412;2.164;2023-03-03T00:05:07;15.95;;;13.13;;
47153;SDS011;32907;41.412;2.164;2023-03-03T00:07:36;18.90;;;13.57;;
47153;SDS011;32907;41.412;2.164;2023-03-03T00:10:04;17.70;;;13.05;;
47153;SDS011;32907;41.412;2.164;2023-03-03T00:12:45;16.70;;;14.65;;
47153;SDS011;32907;41.412;2.164;2023-03-03T00:15:18;15.98;;;14.32;;
47153;SDS011;32907;41.412;2.164;2023-03-03T00:17:53;15.80;;;12.85;;
47153;SDS011;32907;41.412;2.164;2023-03-03T00:20:24;15.63;;;13.18;;
47153;SDS011;32907;41.412;2.164;2023-03-03T00:23:05;16.17;;;13.15;;
47153;SDS011;32907;41.412;2.164;2023-03-03T00:25:44;16.55;;;13.35;;
47153;SDS011;32907;41.412;2.164;2023-03-03T00:30:54;15.00;;;12.88;;
47153;SDS011;32907;41.412;2.164;2023-03-03T00:33:33;15.43;;;12.93;;
47153;SDS011;32907;41.412;2.164;2023-03-03T00:38:47;14.65;;;12.45;;
47153;SDS011;32907;41.412;2.164;2023-03-03T00:41:23;13.88;;;12.23;;
47153;SDS011;32907;41.412;2.164;2023-03-03T00:43:53;14.00;;;12.50;;
47153;SDS011;32907;41.412;2.164;2023-03-03T00:46:22;15.63;;;12.65;;
47153;SDS011;32907;41.412;2.164;2023-03-03T00:48:50;14.73;;;12.68;;
47153;SDS011;32907;41.412;2.164;2023-03-03T00:51:29;14.80;;;12.35;;
47153;SDS011;32907;41.412;2.164;2023-03-03T00:53:59;14.88;;;13.15;;
47153;SDS011;32907;41.412;2.164;2023-03-03T00:56:28;12.82;;;11.30;;
47153;SDS011;32907;41.412;2.164;2023-03-03T00:59:00;13.98;;;12.27;;
47153;SDS011;32907;41.412;2.164;2023-03-03T01:01:30;14.48;;;12.98;;
47153;SDS011;32907;41.412;2.164;2023-03-03T01:03:58;14.18;;;12.68;;
47153;SDS011;32907;41.412;2.164;2023-03-03T01:06:26;14.02;;;12.32;;
47153;SDS011;32907;41.412;2.164;2023-03-03T01:08:55;14.30;;;12.70;;
47153;SDS011;32907;41.412;2.164;2023-03-03T01:11:24;13.90;;;12.20;;
47153;SDS011;32907;41.412;2.164;2023-03-03T01:13:55;13.73;;;11.75;;
47153;SDS011;32907;41.412;2.164;2023-03-03T01:16:26;13.70;;;12.30;;
47153;SDS011;32907;41.412;2.164;2023-03-03T01:18:54;12.02;;;10.82;;
47153;SDS011;32907;41.412;2.164;2023-03-03T01:21:22;15.43;;;11.73;;
47153;SDS011;32907;41.412;2.164;2023-03-03T01:23:50;14.73;;;11.77;;
47153;SDS011;32907;41.412;2.164;2023-03-03T01:26:20;11.70;;;10.50;;
47153;SDS011;32907;41.412;2.164;2023-03-03T01:28:49;11.98;;;10.77;;
47153;SDS011;32907;41.412;2.164;2023-03-03T01:31:17;12.82;;;11.52;;
47153;SDS011;32907;41.412;2.164;2023-03-03T01:33:45;14.25;;;11.13;;
47153;SDS011;32907;41.412;2.164;2023-03-03T01:36:13;11.82;;;10.13;;
47153;SDS011;32907;41.412;2.164;2023-03-03T01:38:41;11.25;;;10.07;;
47153;SDS011;32907;41.412;2.164;2023-03-03T01:41:10;11.63;;;10.50;;
47153;SDS011;32907;41.412;2.164;2023-03-03T01:43:42;13.63;;;11.35;;
47153;SDS011;32907;41.412;2.164;2023-03-03T01:48:55;12.07;;;10.82;;
47153;SDS011;32907;41.412;2.164;2023-03-03T01:51:38;13.90;;;11.68;;
47153;SDS011;32907;41.412;2.164;2023-03-03T01:54:16;12.45;;;11.15;;
47153;SDS011;32907;41.412;2.164;2023-03-03T01:56:52;10.65;;;9.55;;
47153;SDS011;32907;41.412;2.164;2023-03-03T01:59:23;12.23;;;10.90;;
47153;SDS011;32907;41.412;2.164;2023-03-03T02:01:55;11.55;;;9.98;;
47153;SDS011;32907;41.412;2.164;2023-03-03T02:04:24;11.30;;;10.13;;
47153;SDS011;32907;41.412;2.164;2023-03-03T02:06:55;11.98;;;10.77;;
47153;SDS011;32907;41.412;2.164;2023-03-03T02:09:51;10.95;;;9.85;;
47153;SDS011;32907;41.412;2.164;2023-03-03T02:12:35;12.52;;;11.23;;
47153;SDS011;32907;41.412;2.164;2023-03-03T02:15:33;12.02;;;9.75;;
47153;SDS011;32907;41.412;2.164;2023-03-03T02:18:06;11.23;;;9.68;;
47153;SDS011;32907;41.412;2.164;2023-03-03T02:23:17;11.63;;;10.43;;
47153;SDS011;32907;41.412;2.164;2023-03-03T02:25:59;12.68;;;10.38;;
47153;SDS011;32907;41.412;2.164;2023-03-03T02:29:05;11.85;;;9.80;;
47153;SDS011;32907;41.412;2.164;2023-03-03T02:31:36;12.18;;;10.88;;
47153;SDS011;32907;41.412;2.164;2023-03-03T02:34:05;11.00;;;9.90;;
47153;SDS011;32907;41.412;2.164;2023-03-03T02:36:37;11.48;;;10.38;;
47153;SDS011;32907;41.412;2.164;2023-03-03T02:39:12;10.88;;;9.80;;
47153;SDS011;32907;41.412;2.164;2023-03-03T02:41:52;12.60;;;10.32;;
47153;SDS011;32907;41.412;2.164;2023-03-03T02:44:35;11.68;;;10.40;;
47153;SDS011;32907;41.412;2.164;2023-03-03T02:47:03;12.95;;;10.13;;
47153;SDS011;32907;41.412;2.164;2023-03-03T02:49:33;11.50;;;10.27;;
47153;SDS011;32907;41.412;2.164;2023-03-03T02:52:04;11.88;;;10.55;;
47153;SDS011;32907;41.412;2.164;2023-03-03T02:54:38;12.02;;;10.73;;
47153;SDS011;32907;41.412;2.164;2023-03-03T02:57:07;12.88;;;10.93;;
47153;SDS011;32907;41.412;2.164;2023-03-03T02:59:35;11.15;;;9.98;;
47153;SDS011;32907;41.412;2.164;2023-03-03T03:02:15;10.85;;;9.75;;
47153;SDS011;32907;41.412;2.164;2023-03-03T03:04:46;12.05;;;10.30;;
47153;SDS011;32907;41.412;2.164;2023-03-03T03:07:18;10.70;;;9.68;;
47153;SDS011;32907;41.412;2.164;2023-03-03T03:09:46;10.95;;;9.80;;
47153;SDS011;32907;41.412;2.164;2023-03-03T03:12:14;12.48;;;10.70;;
47153;SDS011;32907;41.412;2.164;2023-03-03T03:14:51;12.13;;;10.90;;
47153;SDS011;32907;41.412;2.164;2023-03-03T03:17:19;12.52;;;10.93;;
47153;SDS011;32907;41.412;2.164;2023-03-03T03:19:48;10.35;;;9.25;;
47153;SDS011;32907;41.412;2.164;2023-03-03T03:22:16;11.45;;;10.25;;
47153;SDS011;32907;41.412;2.164;2023-03-03T03:24:46;14.23;;;11.40;;
47153;SDS011;32907;41.412;2.164;2023-03-03T03:27:15;11.43;;;10.32;;
47153;SDS011;32907;41.412;2.164;2023-03-03T03:29:47;11.27;;;10.10;;
47153;SDS011;32907;41.412;2.164;2023-03-03T03:32:15;14.07;;;11.20;;
47153;SDS011;32907;41.412;2.164;2023-03-03T03:34:44;12.60;;;10.43;;
47153;SDS011;32907;41.412;2.164;2023-03-03T03:37:12;13.07;;;10.45;;
47153;SDS011;32907;41.412;2.164;2023-03-03T03:39:43;11.98;;;10.07;;
47153;SDS011;32907;41.412;2.164;2023-03-03T03:42:16;11.57;;;10.32;;
47153;SDS011;32907;41.412;2.164;2023-03-03T03:44:45;12.65;;;9.93;;
47153;SDS011;32907;41.412;2.164;2023-03-03T03:47:14;11.23;;;10.02;;
47153;SDS011;32907;41.412;2.164;2023-03-03T03:49:42;11.32;;;10.13;;
47153;SDS011;32907;41.412;2.164;2023-03-03T03:52:09;10.50;;;9.40;;
47153;SDS011;32907;41.412;2.164;2023-03-03T03:54:40;10.90;;;9.80;;
47153;SDS011;32907;41.412;2.164;2023-03-03T03:57:08;11.68;;;10.07;;
47153;SDS011;32907;41.412;2.164;2023-03-03T03:59:36;10.98;;;9.85;;
47153;SDS011;32907;41.412;2.164;2023-03-03T04:02:06;13.70;;;10.73;;
47153;SDS011;32907;41.412;2.164;2023-03-03T04:04:34;13.13;;;9.90;;
47153;SDS011;32907;41.412;2.164;2023-03-03T04:07:04;11.35;;;10.15;;
47153;SDS011;32907;41.412;2.164;2023-03-03T04:09:33;12.02;;;10.15;;
47153;SDS011;32907;41.412;2.164;2023-03-03T04:12:01;10.63;;;9.55;;
47153;SDS011;32907;41.412;2.164;2023-03-03T04:14:30;12.30;;;9.73;;
47153;SDS011;32907;41.412;2.164;2023-03-03T04:16:58;12.20;;;10.15;;
47153;SDS011;32907;41.412;2.164;2023-03-03T04:19:26;12.55;;;10.18;;
47153;SDS011;32907;41.412;2.164;2023-03-03T04:21:55;13.32;;;10.65;;
47153;SDS011;32907;41.412;2.164;2023-03-03T04:24:22;13.05;;;9.95;;
47153;SDS011;32907;41.412;2.164;2023-03-03T04:26:52;11.20;;;10.07;;
47153;SDS011;32907;41.412;2.164;2023-03-03T04:29:20;11.35;;;9.82;;
47153;SDS011;32907;41.412;2.164;2023-03-03T04:31:49;11.02;;;9.82;;
47153;SDS011;32907;41.412;2.164;2023-03-03T04:34:18;12.73;;;10.40;;
47153;SDS011;32907;41.412;2.164;2023-03-03T04:36:46;10.95;;;9.57;;
47153;SDS011;32907;41.412;2.164;2023-03-03T04:39:13;12.05;;;9.50;;
47153;SDS011;32907;41.412;2.164;2023-03-03T04:41:42;10.55;;;9.45;;
47153;SDS011;32907;41.412;2.164;2023-03-03T04:44:10;12.75;;;9.63;;
47153;SDS011;32907;41.412;2.164;2023-03-03T04:46:38;12.02;;;10.25;;
47153;SDS011;32907;41.412;2.164;2023-03-03T04:49:06;12.18;;;9.88;;
47153;SDS011;32907;41.412;2.164;2023-03-03T04:51:39;11.32;;;9.48;;
47153;SDS011;32907;41.412;2.164;2023-03-03T04:54:07;10.98;;;9.88;;
47153;SDS011;32907;41.412;2.164;2023-03-03T04:56:35;10.90;;;9.85;;
47153;SDS011;32907;41.412;2.164;2023-03-03T04:59:03;11.07;;;9.90;;
47153;SDS011;32907;41.412;2.164;2023-03-03T05:01:32;10.90;;;9.48;;
47153;SDS011;32907;41.412;2.164;2023-03-03T05:04:00;11.32;;;10.13;;
47153;SDS011;32907;41.412;2.164;2023-03-03T05:06:28;11.93;;;10.15;;
47153;SDS011;32907;41.412;2.164;2023-03-03T05:08:56;11.57;;;9.38;;
47153;SDS011;32907;41.412;2.164;2023-03-03T05:11:24;12.23;;;9.70;;
47153;SDS011;32907;41.412;2.164;2023-03-03T05:13:52;11.20;;;10.07;;
47153;SDS011;32907;41.412;2.164;2023-03-03T05:16:20;11.57;;;10.38;;
47153;SDS011;32907;41.412;2.164;2023-03-03T05:18:47;10.93;;;9.80;;
47153;SDS011;32907;41.412;2.164;2023-03-03T05:21:16;11.13;;;9.93;;
47153;SDS011;32907;41.412;2.164;2023-03-03T05:23:45;11.73;;;10.18;;
47153;SDS011;32907;41.412;2.164;2023-03-03T05:26:13;11.63;;;10.43;;
47153;SDS011;32907;41.412;2.164;2023-03-03T05:28:41;12.15;;;10.95;;
47153;SDS011;32907;41.412;2.164;2023-03-03T05:31:09;10.98;;;9.85;;
47153;SDS011;32907;41.412;2.164;2023-03-03T05:33:37;11.82;;;10.63;;
47153;SDS011;32907;41.412;2.164;2023-03-03T05:36:05;11.02;;;9.93;;
47153;SDS011;32907;41.412;2.164;2023-03-03T05:38:33;11.15;;;9.93;;
47153;SDS011;32907;41.412;2.164;2023-03-03T05:41:00;12.38;;;10.63;;
47153;SDS011;32907;41.412;2.164;2023-03-03T05:43:28;11.80;;;10.68;;
47153;SDS011;32907;41.412;2.164;2023-03-03T05:45:57;12.63;;;10.57;;
47153;SDS011;32907;41.412;2.164;2023-03-03T05:48:25;12.07;;;10.77;;
47153;SDS011;32907;41.412;2.164;2023-03-03T05:50:56;12.18;;;10.57;;
47153;SDS011;32907;41.412;2.164;2023-03-03T05:53:28;13.15;;;10.95;;
47153;SDS011;32907;41.412;2.164;2023-03-03T05:55:56;12.43;;;10.95;;
47153;SDS011;32907;41.412;2.164;2023-03-03T05:58:24;13.70;;;11.60;;
47153;SDS011;32907;41.412;2.164;2023-03-03T06:00:53;13.40;;;11.98;;
47153;SDS011;32907;41.412;2.164;2023-03-03T06:03:21;13.95;;;12.23;;
47153;SDS011;32907;41.412;2.164;2023-03-03T06:05:49;14.68;;;12.77;;
47153;SDS011;32907;41.412;2.164;2023-03-03T06:08:17;12.90;;;11.57;;
47153;SDS011;32907;41.412;2.164;2023-03-03T06:10:45;14.50;;;11.70;;
47153;SDS011;32907;41.412;2.164;2023-03-03T06:13:17;13.52;;;11.45;;
47153;SDS011;32907;41.412;2.164;2023-03-03T06:15:45;13.50;;;12.20;;
47153;SDS011;32907;41.412;2.164;2023-03-03T06:18:13;15.52;;;12.55;;
47153;SDS011;32907;41.412;2.164;2023-03-03T06:20:41;18.83;;;15.30;;
47153;SDS011;32907;41.412;2.164;2023-03-03T06:23:09;40.95;;;21.35;;
47153;SDS011;32907;41.412;2.164;2023-03-03T06:25:37;42.03;;;22.85;;
47153;SDS011;32907;41.412;2.164;2023-03-03T06:28:06;31.40;;;18.13;;
47153;SDS011;32907;41.412;2.164;2023-03-03T06:30:34;35.63;;;20.15;;
47153;SDS011;32907;41.412;2.164;2023-03-03T06:33:03;29.73;;;16.77;;
47153;SDS011;32907;41.412;2.164;2023-03-03T06:35:32;23.27;;;15.80;;
47153;SDS011;32907;41.412;2.164;2023-03-03T06:38:00;20.77;;;14.63;;
47153;SDS011;32907;41.412;2.164;2023-03-03T06:40:29;18.40;;;14.73;;
47153;SDS011;32907;41.412;2.164;2023-03-03T06:42:57;17.88;;;14.30;;
47153;SDS011;32907;41.412;2.164;2023-03-03T06:45:24;16.67;;;13.93;;
47153;SDS011;32907;41.412;2.164;2023-03-03T06:47:52;16.85;;;13.80;;
47153;SDS011;32907;41.412;2.164;2023-03-03T06:50:20;18.33;;;14.75;;
47153;SDS011;32907;41.412;2.164;2023-03-03T06:52:48;14.77;;;13.20;;
47153;SDS011;32907;41.412;2.164;2023-03-03T06:55:35;15.57;;;12.90;;
47153;SDS011;32907;41.412;2.164;2023-03-03T07:00:42;17.17;;;13.77;;
47153;SDS011;32907;41.412;2.164;2023-03-03T07:03:16;14.95;;;12.57;;
47153;SDS011;32907;41.412;2.164;2023-03-03T07:05:47;17.67;;;13.32;;
47153;SDS011;32907;41.412;2.164;2023-03-03T07:08:16;15.75;;;12.90;;
47153;SDS011;32907;41.412;2.164;2023-03-03T07:10:47;13.52;;;12.05;;
47153;SDS011;32907;41.412;2.164;2023-03-03T07:15:50;15.88;;;12.95;;
47153;SDS011;32907;41.412;2.164;2023-03-03T07:18:22;15.13;;;12.48;;
47153;SDS011;32907;41.412;2.164;2023-03-03T07:21:04;16.73;;;13.40;;
47153;SDS011;32907;41.412;2.164;2023-03-03T07:23:41;17.90;;;12.63;;
47153;SDS011;32907;41.412;2.164;2023-03-03T07:26:11;16.88;;;13.05;;
47153;SDS011;32907;41.412;2.164;2023-03-03T07:28:56;14.75;;;13.25;;
47153;SDS011;32907;41.412;2.164;2023-03-03T07:31:28;16.10;;;14.23;;
47153;SDS011;32907;41.412;2.164;2023-03-03T07:34:37;15.40;;;12.88;;
47153;SDS011;32907;41.412;2.164;2023-03-03T07:40:05;15.93;;;14.18;;
47153;SDS011;32907;41.412;2.164;2023-03-03T07:42:58;16.52;;;14.73;;
47153;SDS011;32907;41.412;2.164;2023-03-03T07:45:34;15.65;;;13.98;;
47153;SDS011;32907;41.412;2.164;2023-03-03T07:48:23;16.20;;;14.43;;
47153;SDS011;32907;41.412;2.164;2023-03-03T07:50:57;18.00;;;14.35;;
47153;SDS011;32907;41.412;2.164;2023-03-03T07:53:33;18.00;;;13.25;;
47153;SDS011;32907;41.412;2.164;2023-03-03T07:58:56;19.17;;;14.65;;
47153;SDS011;32907;41.412;2.164;2023-03-03T08:03:56;16.33;;;13.57;;
47153;SDS011;32907;41.412;2.164;2023-03-03T08:06:36;19.52;;;13.70;;
47153;SDS011;32907;41.412;2.164;2023-03-03T08:11:49;15.27;;;13.15;;
47153;SDS011;32907;41.412;2.164;2023-03-03T08:14:25;15.23;;;12.93;;
47153;SDS011;32907;41.412;2.164;2023-03-03T08:16:56;21.20;;;13.05;;
47153;SDS011;32907;41.412;2.164;2023-03-03T08:19:29;15.30;;;12.18;;
47153;SDS011;32907;41.412;2.164;2023-03-03T08:22:22;16.45;;;13.07;;
47153;SDS011;32907;41.412;2.164;2023-03-03T08:24:52;16.75;;;12.10;;
47153;SDS011;32907;41.412;2.164;2023-03-03T08:27:20;15.10;;;13.52;;
47153;SDS011;32907;41.412;2.164;2023-03-03T08:29:47;15.60;;;13.15;;
47153;SDS011;32907;41.412;2.164;2023-03-03T08:32:16;18.45;;;12.63;;
47153;SDS011;32907;41.412;2.164;2023-03-03T08:34:44;15.57;;;13.65;;
47153;SDS011;32907;41.412;2.164;2023-03-03T08:37:13;19.95;;;12.93;;
47153;SDS011;32907;41.412;2.164;2023-03-03T08:39:40;19.73;;;13.48;;
47153;SDS011;32907;41.412;2.164;2023-03-03T08:42:09;16.10;;;12.65;;
47153;SDS011;32907;41.412;2.164;2023-03-03T08:44:37;18.30;;;13.20;;
47153;SDS011;32907;41.412;2.164;2023-03-03T08:47:04;17.77;;;13.35;;
47153;SDS011;32907;41.412;2.164;2023-03-03T08:49:32;17.23;;;12.55;;
47153;SDS011;32907;41.412;2.164;2023-03-03T08:52:00;18.25;;;12.90;;
47153;SDS011;32907;41.412;2.164;2023-03-03T08:54:28;15.93;;;13.05;;
47153;SDS011;32907;41.412;2.164;2023-03-03T08:56:56;17.13;;;11.77;;
47153;SDS011;32907;41.412;2.164;2023-03-03T08:59:24;16.38;;;13.10;;
47153;SDS011;32907;41.412;2.164;2023-03-03T09:01:52;16.35;;;12.52;;
47153;SDS011;32907;41.412;2.164;2023-03-03T09:04:22;15.52;;;12.50;;
47153;SDS011;32907;41.412;2.164;2023-03-03T09:06:50;16.02;;;13.00;;
47153;SDS011;32907;41.412;2.164;2023-03-03T09:09:18;15.07;;;12.68;;
47153;SDS011;32907;41.412;2.164;2023-03-03T09:11:46;17.27;;;13.02;;
47153;SDS011;32907;41.412;2.164;2023-03-03T09:14:15;17.98;;;12.93;;
47153;SDS011;32907;41.412;2.164;2023-03-03T09:16:51;14.45;;;12.95;;
47153;SDS011;32907;41.412;2.164;2023-03-03T09:22:00;13.95;;;11.93;;
47153;SDS011;32907;41.412;2.164;2023-03-03T09:24:40;14.40;;;11.80;;
47153;SDS011;32907;41.412;2.164;2023-03-03T09:27:17;13.75;;;12.27;;
47153;SDS011;32907;41.412;2.164;2023-03-03T09:29:54;14.95;;;13.35;;
47153;SDS011;32907;41.412;2.164;2023-03-03T09:32:29;16.50;;;12.77;;
47153;SDS011;32907;41.412;2.164;2023-03-03T09:35:49;15.00;;;12.25;;
47153;SDS011;32907;41.412;2.164;2023-03-03T09:38:39;15.68;;;12.50;;
47153;SDS011;32907;41.412;2.164;2023-03-03T09:55:33;15.68;;;12.90;;
47153;SDS011;32907;41.412;2.164;2023-03-03T10:11:48;14.80;;;11.88;;
47153;SDS011;32907;41.412;2.164;2023-03-03T10:19:38;13.23;;;11.82;;
47153;SDS011;32907;41.412;2.164;2023-03-03T10:22:17;13.35;;;11.73;;
47153;SDS011;32907;41.412;2.164;2023-03-03T10:24:54;16.75;;;13.23;;
47153;SDS011;32907;41.412;2.164;2023-03-03T10:27:46;15.35;;;12.52;;
47153;SDS011;32907;41.412;2.164;2023-03-03T10:30:42;20.77;;;13.70;;
47153;SDS011;32907;41.412;2.164;2023-03-03T10:39:27;16.05;;;13.32;;
47153;SDS011;32907;41.412;2.164;2023-03-03T10:41:38;22.02;;;14.65;;
47153;SDS011;32907;41.412;2.164;2023-03-03T10:52:45;17.75;;;14.88;;
47153;SDS011;32907;41.412;2.164;2023-03-03T10:55:20;18.85;;;14.40;;
47153;SDS011;32907;41.412;2.164;2023-03-03T11:14:42;20.27;;;15.32;;
47153;SDS011;32907;41.412;2.164;2023-03-03T11:17:29;20.17;;;17.00;;
47153;SDS011;32907;41.412;2.164;2023-03-03T11:20:35;19.33;;;16.45;;
47153;SDS011;32907;41.412;2.164;2023-03-03T11:26:08;20.83;;;17.45;;
47153;SDS011;32907;41.412;2.164;2023-03-03T11:31:50;23.10;;;17.08;;
47153;SDS011;32907;41.412;2.164;2023-03-03T11:37:09;21.05;;;17.85;;
47153;SDS011;32907;41.412;2.164;2023-03-03T11:39:46;25.05;;;19.35;;
47153;SDS011;32907;41.412;2.164;2023-03-03T11:42:35;23.30;;;19.92;;
47153;SDS011;32907;41.412;2.164;2023-03-03T11:45:14;23.27;;;19.25;;
47153;SDS011;32907;41.412;2.164;2023-03-03T11:47:48;22.98;;;20.23;;
47153;SDS011;32907;41.412;2.164;2023-03-03T11:50:25;27.27;;;20.23;;
47153;SDS011;32907;41.412;2.164;2023-03-03T11:55:44;27.50;;;20.02;;
47153;SDS011;32907;41.412;2.164;2023-03-03T11:58:17;26.90;;;20.20;;
47153;SDS011;32907;41.412;2.164;2023-03-03T12:03:40;22.67;;;19.55;;
47153;SDS011;32907;41.412;2.164;2023-03-03T12:11:54;25.25;;;19.05;;
47153;SDS011;32907;41.412;2.164;2023-03-03T12:24:01;23.33;;;19.77;;
47153;SDS011;32907;41.412;2.164;2023-03-03T12:26:16;24.67;;;21.58;;
47153;SDS011;32907;41.412;2.164;2023-03-03T12:28:57;24.83;;;21.35;;
47153;SDS011;32907;41.412;2.164;2023-03-03T12:34:14;23.73;;;20.52;;
47153;SDS011;32907;41.412;2.164;2023-03-03T12:37:11;23.67;;;19.83;;
47153;SDS011;32907;41.412;2.164;2023-03-03T12:39:54;21.90;;;19.38;;
47153;SDS011;32907;41.412;2.164;2023-03-03T12:45:55;24.20;;;20.30;;
47153;SDS011;32907;41.412;2.164;2023-03-03T12:48:37;24.95;;;21.17;;
47153;SDS011;32907;41.412;2.164;2023-03-03T12:51:14;23.15;;;19.38;;
47153;SDS011;32907;41.412;2.164;2023-03-03T12:56:22;24.73;;;19.33;;
47153;SDS011;32907;41.412;2.164;2023-03-03T13:04:53;35.13;;;25.48;;
47153;SDS011;32907;41.412;2.164;2023-03-03T13:07:31;30.27;;;23.57;;
47153;SDS011;32907;41.412;2.164;2023-03-03T13:15:37;27.60;;;21.35;;
47153;SDS011;32907;41.412;2.164;2023-03-03T13:21:06;26.15;;;21.27;;
47153;SDS011;32907;41.412;2.164;2023-03-03T13:23:51;26.63;;;21.50;;
47153;SDS011;32907;41.412;2.164;2023-03-03T13:32:00;24.27;;;21.17;;
47153;SDS011;32907;41.412;2.164;2023-03-03T13:42:37;21.75;;;19.08;;
47153;SDS011;32907;41.412;2.164;2023-03-03T13:45:13;21.27;;;19.00;;
47153;SDS011;32907;41.412;2.164;2023-03-03T13:48:05;26.23;;;20.30;;
47153;SDS011;32907;41.412;2.164;2023-03-03T13:50:52;24.70;;;20.17;;
47153;SDS011;32907;41.412;2.164;2023-03-03T14:07:17;27.10;;;21.63;;
47153;SDS011;32907;41.412;2.164;2023-03-03T14:21:07;30.30;;;21.75;;
47153;SDS011;32907;41.412;2.164;2023-03-03T14:26:56;24.65;;;19.60;;
47153;SDS011;32907;41.412;2.164;2023-03-03T14:31:54;23.77;;;18.98;;
47153;SDS011;32907;41.412;2.164;2023-03-03T14:34:35;24.08;;;18.50;;
47153;SDS011;32907;41.412;2.164;2023-03-03T14:37:21;20.88;;;17.52;;
47153;SDS011;32907;41.412;2.164;2023-03-03T14:42:47;22.60;;;18.70;;
47153;SDS011;32907;41.412;2.164;2023-03-03T14:47:59;26.17;;;18.30;;
47153;SDS011;32907;41.412;2.164;2023-03-03T14:50:56;23.27;;;18.58;;
47153;SDS011;32907;41.412;2.164;2023-03-03T14:53:37;25.65;;;18.88;;
47153;SDS011;32907;41.412;2.164;2023-03-03T14:58:54;20.38;;;18.00;;
47153;SDS011;32907;41.412;2.164;2023-03-03T15:01:44;22.95;;;18.13;;
47153;SDS011;32907;41.412;2.164;2023-03-03T15:06:49;23.15;;;17.38;;
47153;SDS011;32907;41.412;2.164;2023-03-03T15:12:04;17.95;;;16.08;;
47153;SDS011;32907;41.412;2.164;2023-03-03T15:14:46;19.40;;;16.05;;
47153;SDS011;32907;41.412;2.164;2023-03-03T15:22:47;20.10;;;15.55;;
47153;SDS011;32907;41.412;2.164;2023-03-03T15:28:18;17.70;;;14.25;;
47153;SDS011;32907;41.412;2.164;2023-03-03T15:39:27;19.80;;;15.15;;
47153;SDS011;32907;41.412;2.164;2023-03-03T15:42:31;20.33;;;14.95;;
47153;SDS011;32907;41.412;2.164;2023-03-03T15:45:13;17.40;;;14.30;;
47153;SDS011;32907;41.412;2.164;2023-03-03T15:50:51;15.43;;;13.57;;
47153;SDS011;32907;41.412;2.164;2023-03-03T16:04:25;17.52;;;13.68;;
47153;SDS011;32907;41.412;2.164;2023-03-03T16:07:01;16.42;;;13.70;;
47153;SDS011;32907;41.412;2.164;2023-03-03T16:12:15;16.80;;;13.35;;
47153;SDS011;32907;41.412;2.164;2023-03-03T16:25:57;19.77;;;13.75;;
47153;SDS011;32907;41.412;2.164;2023-03-03T16:34:20;17.13;;;13.27;;
47153;SDS011;32907;41.412;2.164;2023-03-03T16:37:03;23.13;;;15.18;;
47153;SDS011;32907;41.412;2.164;2023-03-03T16:42:47;17.25;;;14.20;;
47153;SDS011;32907;41.412;2.164;2023-03-03T16:45:34;20.98;;;15.05;;
47153;SDS011;32907;41.412;2.164;2023-03-03T16:48:21;20.00;;;14.38;;
47153;SDS011;32907;41.412;2.164;2023-03-03T16:53:56;21.60;;;14.80;;
47153;SDS011;32907;41.412;2.164;2023-03-03T16:56:36;18.02;;;13.75;;
47153;SDS011;32907;41.412;2.164;2023-03-03T17:01:54;17.92;;;14.07;;
47153;SDS011;32907;41.412;2.164;2023-03-03T17:04:58;22.50;;;14.32;;
47153;SDS011;32907;41.412;2.164;2023-03-03T17:07:47;17.13;;;13.30;;
47153;SDS011;32907;41.412;2.164;2023-03-03T17:32:06;17.70;;;14.65;;
47153;SDS011;32907;41.412;2.164;2023-03-03T17:45:44;21.83;;;15.73;;
47153;SDS011;32907;41.412;2.164;2023-03-03T18:12:02;21.65;;;15.40;;
47153;SDS011;32907;41.412;2.164;2023-03-03T18:23:30;22.85;;;15.25;;
47153;SDS011;32907;41.412;2.164;2023-03-03T18:36:58;22.02;;;15.43;;
47153;SDS011;32907;41.412;2.164;2023-03-03T18:39:46;19.92;;;14.80;;
47153;SDS011;32907;41.412;2.164;2023-03-03T18:44:44;17.67;;;14.65;;
47153;SDS011;32907;41.412;2.164;2023-03-03T18:47:17;20.60;;;15.25;;
47153;SDS011;32907;41.412;2.164;2023-03-03T18:53:11;20.38;;;14.15;;
47153;SDS011;32907;41.412;2.164;2023-03-03T19:00:44;19.23;;;14.48;;
47153;SDS011;32907;41.412;2.164;2023-03-03T19:05:55;19.17;;;14.57;;
47153;SDS011;32907;41.412;2.164;2023-03-03T19:08:44;19.05;;;14.85;;
47153;SDS011;32907;41.412;2.164;2023-03-03T19:11:36;18.13;;;14.38;;
47153;SDS011;32907;41.412;2.164;2023-03-03T19:16:47;19.48;;;13.55;;
47153;SDS011;32907;41.412;2.164;2023-03-03T19:19:21;20.80;;;13.65;;
47153;SDS011;32907;41.412;2.164;2023-03-03T19:22:19;23.65;;;19.42;;
47153;SDS011;32907;41.412;2.164;2023-03-03T19:27:40;41.65;;;35.67;;
47153;SDS011;32907;41.412;2.164;2023-03-03T19:30:16;51.25;;;39.13;;
47153;SDS011;32907;41.412;2.164;2023-03-03T19:33:13;41.70;;;35.25;;
47153;SDS011;32907;41.412;2.164;2023-03-03T19:35:56;38.47;;;31.92;;
47153;SDS011;32907;41.412;2.164;2023-03-03T19:47:44;32.47;;;24.23;;
47153;SDS011;32907;41.412;2.164;2023-03-03T19:56:19;24.20;;;19.65;;
47153;SDS011;32907;41.412;2.164;2023-03-03T20:01:45;22.02;;;18.33;;
47153;SDS011;32907;41.412;2.164;2023-03-03T20:04:33;23.70;;;18.40;;
47153;SDS011;32907;41.412;2.164;2023-03-03T20:09:55;20.58;;;16.90;;
47153;SDS011;32907;41.412;2.164;2023-03-03T20:15:22;20.13;;;17.20;;
47153;SDS011;32907;41.412;2.164;2023-03-03T20:26:34;25.75;;;18.95;;
47153;SDS011;32907;41.412;2.164;2023-03-03T20:29:19;23.65;;;19.73;;
47153;SDS011;32907;41.412;2.164;2023-03-03T20:37:56;21.80;;;18.00;;
47153;SDS011;32907;41.412;2.164;2023-03-03T20:40:40;24.33;;;20.67;;
47153;SDS011;32907;41.412;2.164;2023-03-03T20:43:41;22.58;;;18.88;;
47153;SDS011;32907;41.412;2.164;2023-03-03T21:00:11;20.92;;;18.08;;
47153;SDS011;32907;41.412;2.164;2023-03-03T21:02:57;24.38;;;19.38;;
47153;SDS011;32907;41.412;2.164;2023-03-03T21:05:32;20.05;;;17.92;;
47153;SDS011;32907;41.412;2.164;2023-03-03T21:08:01;20.20;;;17.13;;
47153;SDS011;32907;41.412;2.164;2023-03-03T21:10:32;20.60;;;17.58;;
47153;SDS011;32907;41.412;2.164;2023-03-03T21:19:00;29.75;;;16.83;;
47153;SDS011;32907;41.412;2.164;2023-03-03T21:21:31;17.27;;;15.43;;
47153;SDS011;32907;41.412;2.164;2023-03-03T21:24:01;18.02;;;16.13;;
47153;SDS011;32907;41.412;2.164;2023-03-03T21:32:39;18.65;;;15.70;;
47153;SDS011;32907;41.412;2.164;2023-03-03T21:40:19;21.50;;;16.95;;
47153;SDS011;32907;41.412;2.164;2023-03-03T21:42:53;20.88;;;17.45;;
47153;SDS011;32907;41.412;2.164;2023-03-03T21:45:23;19.90;;;17.25;;
47153;SDS011;32907;41.412;2.164;2023-03-03T21:47:52;20.65;;;17.13;;
47153;SDS011;32907;41.412;2.164;2023-03-03T21:50:28;19.75;;;17.52;;
47153;SDS011;32907;41.412;2.164;2023-03-03T21:52:58;20.95;;;18.13;;
47153;SDS011;32907;41.412;2.164;2023-03-03T21:55:28;21.73;;;18.88;;
47153;SDS011;32907;41.412;2.164;2023-03-03T21:57:56;21.25;;;18.33;;
47153;SDS011;32907;41.412;2.164;2023-03-03T22:00:24;20.05;;;17.88;;
47153;SDS011;32907;41.412;2.164;2023-03-03T22:02:52;20.05;;;17.50;;
47153;SDS011;32907;41.412;2.164;2023-03-03T22:05:21;19.92;;;17.85;;
47153;SDS011;32907;41.412;2.164;2023-03-03T22:07:49;21.40;;;19.00;;
47153;SDS011;32907;41.412;2.164;2023-03-03T22:10:17;21.73;;;19.42;;